sensor_id;sensor_type;location;lat;lon;timestamp;pressure;altitude;pressure_sealevel;temperature;humidity
62333;BME280;48624;49.812;8.562;2023-11-21T00:01:37;99929.44;;;8.86;100.00
62333;BME280;48624;49.812;8.562;2023-11-21T00:04:02;99934.63;;;8.88;100.00
62333;BME280;48624;49.812;8.562;2023-11-21T00:06:28;99934.09;;;8.96;100.00
62333;BME280;48624;49.812;8.562;2023-11-21T00:08:54;99923.84;;;9.04;100.00
62333;BME280;48624;49.812;8.562;2023-11-21T00:11:20;99930.16;;;9.14;100.00
62333;BME280;48624;49.812;8.562;2023-11-21T00:13:45;99927.75;;;8.98;100.00
62333;BME280;48624;49.812;8.562;2023-11-21T00:16:10;99920.69;;;8.99;100.00
62333;BME280;48624;49.812;8.562;2023-11-21T00:18:36;99925.13;;;8.85;100.00
62333;BME280;48624;49.812;8.562;2023-11-21T00:21:01;99926.59;;;8.90;100.00
62333;BME280;48624;49.812;8.562;2023-11-21T00:23:26;99929.88;;;8.80;100.00
62333;BME280;48624;49.812;8.562;2023-11-21T00:25:51;99922.69;;;8.69;100.00
62333;BME280;48624;49.812;8.562;2023-11-21T00:28:17;99918.91;;;8.60;100.00
62333;BME280;48624;49.812;8.562;2023-11-21T00:30:42;99915.63;;;8.70;100.00
62333;BME280;48624;49.812;8.562;2023-11-21T00:33:07;99918.47;;;8.67;100.00
62333;BME280;48624;49.812;8.562;2023-11-21T00:35:33;99915.94;;;8.65;100.00
62333;BME280;48624;49.812;8.562;2023-11-21T00:37:58;99916.69;;;8.67;100.00
62333;BME280;48624;49.812;8.562;2023-11-21T00:40:23;99913.28;;;8.52;100.00
62333;BME280;48624;49.812;8.562;2023-11-21T00:42:49;99912.25;;;8.55;100.00
62333;BME280;48624;49.812;8.562;2023-11-21T00:45:15;99913.19;;;8.67;100.00
62333;BME280;48624;49.812;8.562;2023-11-21T00:47:40;99912.75;;;8.60;100.00
62333;BME280;48624;49.812;8.562;2023-11-21T00:50:06;99914.66;;;8.58;100.00
62333;BME280;48624;49.812;8.562;2023-11-21T00:52:32;99918.31;;;8.42;100.00
62333;BME280;48624;49.812;8.562;2023-11-21T00:54:57;99920.53;;;8.49;100.00
62333;BME280;48624;49.812;8.562;2023-11-21T00:57:25;99920.25;;;8.53;100.00
62333;BME280;48624;49.812;8.562;2023-11-21T00:59:50;99916.56;;;8.56;100.00
62333;BME280;48624;49.812;8.562;2023-11-21T01:02:16;99915.53;;;8.58;100.00
62333;BME280;48624;49.812;8.562;2023-11-21T01:04:41;99918.16;;;8.58;100.00
62333;BME280;48624;49.812;8.562;2023-11-21T01:07:06;99921.13;;;8.54;100.00
62333;BME280;48624;49.812;8.562;2023-11-21T01:09:32;99923.00;;;8.65;100.00
62333;BME280;48624;49.812;8.562;2023-11-21T01:11:58;99927.88;;;8.71;100.00
62333;BME280;48624;49.812;8.562;2023-11-21T01:14:25;99921.41;;;8.62;100.00
62333;BME280;48624;49.812;8.562;2023-11-21T01:16:52;99917.41;;;8.69;100.00
62333;BME280;48624;49.812;8.562;2023-11-21T01:19:18;99924.59;;;8.67;100.00
62333;BME280;48624;49.812;8.562;2023-11-21T01:21:43;99919.00;;;8.72;100.00
62333;BME280;48624;49.812;8.562;2023-11-21T01:24:08;99930.41;;;8.72;100.00
62333;BME280;48624;49.812;8.562;2023-11-21T01:26:34;99928.94;;;8.68;100.00
62333;BME280;48624;49.812;8.562;2023-11-21T01:28:59;99925.00;;;8.61;100.00
62333;BME280;48624;49.812;8.562;2023-11-21T01:31:24;99920.38;;;8.78;100.00
62333;BME280;48624;49.812;8.562;2023-11-21T01:33:54;99924.19;;;8.73;100.00
62333;BME280;48624;49.812;8.562;2023-11-21T01:36:20;99922.28;;;8.76;100.00
62333;BME280;48624;49.812;8.562;2023-11-21T01:38:46;99924.59;;;8.80;100.00
62333;BME280;48624;49.812;8.562;2023-11-21T01:41:13;99927.56;;;8.63;100.00
62333;BME280;48624;49.812;8.562;2023-11-21T01:43:39;99924.19;;;8.73;100.00
62333;BME280;48624;49.812;8.562;2023-11-21T01:46:05;99926.28;;;8.68;100.00
62333;BME280;48624;49.812;8.562;2023-11-21T01:48:31;99928.38;;;8.76;100.00
62333;BME280;48624;49.812;8.562;2023-11-21T01:50:57;99924.28;;;8.59;100.00
62333;BME280;48624;49.812;8.562;2023-11-21T01:53:24;99931.56;;;8.81;100.00
62333;BME280;48624;49.812;8.562;2023-11-21T01:55:51;99926.06;;;8.71;100.00
62333;BME280;48624;49.812;8.562;2023-11-21T01:58:16;99928.19;;;8.79;100.00
62333;BME280;48624;49.812;8.562;2023-11-21T02:00:42;99934.75;;;8.73;100.00
62333;BME280;48624;49.812;8.562;2023-11-21T02:03:08;99933.66;;;8.76;100.00
62333;BME280;48624;49.812;8.562;2023-11-21T02:05:35;99939.50;;;8.81;100.00
62333;BME280;48624;49.812;8.562;2023-11-21T02:08:01;99937.59;;;8.83;100.00
62333;BME280;48624;49.812;8.562;2023-11-21T02:10:27;99938.63;;;8.81;100.00
62333;BME280;48624;49.812;8.562;2023-11-21T02:12:54;99943.28;;;8.90;100.00
62333;BME280;48624;49.812;8.562;2023-11-21T02:15:22;99934.00;;;8.71;100.00
62333;BME280;48624;49.812;8.562;2023-11-21T02:17:49;99940.03;;;8.73;100.00
62333;BME280;48624;49.812;8.562;2023-11-21T02:20:20;99943.50;;;8.87;100.00
62333;BME280;48624;49.812;8.562;2023-11-21T02:22:53;99951.22;;;8.90;100.00
62333;BME280;48624;49.812;8.562;2023-11-21T02:27:50;99942.25;;;8.93;100.00
62333;BME280;48624;49.812;8.562;2023-11-21T02:30:16;99940.13;;;8.98;100.00
62333;BME280;48624;49.812;8.562;2023-11-21T02:32:42;99943.72;;;8.97;100.00
62333;BME280;48624;49.812;8.562;2023-11-21T02:35:08;99948.16;;;8.83;100.00
62333;BME280;48624;49.812;8.562;2023-11-21T02:37:34;99940.56;;;8.92;100.00
62333;BME280;48624;49.812;8.562;2023-11-21T02:40:01;99946.38;;;8.97;100.00
62333;BME280;48624;49.812;8.562;2023-11-21T02:42:29;99940.97;;;8.98;100.00
62333;BME280;48624;49.812;8.562;2023-11-21T02:44:54;99938.63;;;8.94;100.00
62333;BME280;48624;49.812;8.562;2023-11-21T02:47:19;99940.47;;;8.93;100.00
62333;BME280;48624;49.812;8.562;2023-11-21T02:49:45;99940.97;;;9.11;100.00
62333;BME280;48624;49.812;8.562;2023-11-21T02:52:10;99936.00;;;9.07;100.00
62333;BME280;48624;49.812;8.562;2023-11-21T02:54:35;99937.91;;;9.05;100.00
62333;BME280;48624;49.812;8.562;2023-11-21T02:57:02;99936.53;;;9.12;100.00
62333;BME280;48624;49.812;8.562;2023-11-21T02:59:27;99928.06;;;9.20;100.00
62333;BME280;48624;49.812;8.562;2023-11-21T03:01:52;99932.28;;;9.09;100.00
62333;BME280;48624;49.812;8.562;2023-11-21T03:04:18;99941.69;;;9.13;100.00
62333;BME280;48624;49.812;8.562;2023-11-21T03:06:44;99941.06;;;9.10;100.00
62333;BME280;48624;49.812;8.562;2023-11-21T03:09:10;99935.34;;;9.16;100.00
62333;BME280;48624;49.812;8.562;2023-11-21T03:11:39;99941.91;;;9.23;100.00
62333;BME280;48624;49.812;8.562;2023-11-21T03:14:04;99939.88;;;9.27;100.00
62333;BME280;48624;49.812;8.562;2023-11-21T03:16:31;99938.94;;;9.28;100.00
62333;BME280;48624;49.812;8.562;2023-11-21T03:18:56;99942.41;;;9.28;100.00
62333;BME280;48624;49.812;8.562;2023-11-21T03:21:21;99948.84;;;9.37;100.00
62333;BME280;48624;49.812;8.562;2023-11-21T03:23:47;99947.25;;;9.35;100.00
62333;BME280;48624;49.812;8.562;2023-11-21T03:26:12;99951.50;;;9.37;100.00
62333;BME280;48624;49.812;8.562;2023-11-21T03:28:38;99949.69;;;9.38;100.00
62333;BME280;48624;49.812;8.562;2023-11-21T03:31:03;99952.16;;;9.28;100.00
62333;BME280;48624;49.812;8.562;2023-11-21T03:33:29;99960.72;;;9.32;100.00
62333;BME280;48624;49.812;8.562;2023-11-21T03:35:54;99956.06;;;9.35;100.00
62333;BME280;48624;49.812;8.562;2023-11-21T03:38:20;99958.72;;;9.22;100.00
62333;BME280;48624;49.812;8.562;2023-11-21T03:40:45;99956.69;;;9.26;100.00
62333;BME280;48624;49.812;8.562;2023-11-21T03:43:11;99956.88;;;9.36;100.00
62333;BME280;48624;49.812;8.562;2023-11-21T03:45:36;99956.66;;;9.39;100.00
62333;BME280;48624;49.812;8.562;2023-11-21T03:48:01;99961.53;;;9.32;100.00
62333;BME280;48624;49.812;8.562;2023-11-21T03:50:29;99964.16;;;9.45;100.00
62333;BME280;48624;49.812;8.562;2023-11-21T03:52:54;99963.34;;;9.44;100.00
62333;BME280;48624;49.812;8.562;2023-11-21T03:55:20;99970.84;;;9.38;100.00
62333;BME280;48624;49.812;8.562;2023-11-21T03:57:45;99969.16;;;9.37;100.00
62333;BME280;48624;49.812;8.562;2023-11-21T04:00:11;99976.03;;;9.39;100.00
62333;BME280;48624;49.812;8.562;2023-11-21T04:02:36;99968.19;;;9.38;100.00
62333;BME280;48624;49.812;8.562;2023-11-21T04:05:01;99969.69;;;9.42;100.00
62333;BME280;48624;49.812;8.562;2023-11-21T04:07:28;99978.94;;;9.61;100.00
62333;BME280;48624;49.812;8.562;2023-11-21T04:09:53;99981.19;;;9.54;100.00
62333;BME280;48624;49.812;8.562;2023-11-21T04:12:19;99980.34;;;9.53;100.00
62333;BME280;48624;49.812;8.562;2023-11-21T04:14:44;99981.38;;;9.51;100.00
62333;BME280;48624;49.812;8.562;2023-11-21T04:17:09;99981.91;;;9.56;100.00
62333;BME280;48624;49.812;8.562;2023-11-21T04:19:35;99986.34;;;9.55;100.00
62333;BME280;48624;49.812;8.562;2023-11-21T04:22:01;99983.31;;;9.49;100.00
62333;BME280;48624;49.812;8.562;2023-11-21T04:24:26;99988.59;;;9.49;100.00
62333;BME280;48624;49.812;8.562;2023-11-21T04:26:52;99981.28;;;9.52;100.00
62333;BME280;48624;49.812;8.562;2023-11-21T04:29:17;99990.28;;;9.50;100.00
62333;BME280;48624;49.812;8.562;2023-11-21T04:31:42;99991.63;;;9.55;100.00
62333;BME280;48624;49.812;8.562;2023-11-21T04:34:08;99990.91;;;9.53;100.00
62333;BME280;48624;49.812;8.562;2023-11-21T04:36:33;99997.72;;;9.44;100.00
62333;BME280;48624;49.812;8.562;2023-11-21T04:39:00;100002.53;;;9.51;100.00
62333;BME280;48624;49.812;8.562;2023-11-21T04:41:25;100006.16;;;9.37;100.00
62333;BME280;48624;49.812;8.562;2023-11-21T04:43:50;100014.22;;;9.35;100.00
62333;BME280;48624;49.812;8.562;2023-11-21T04:46:16;100006.59;;;9.18;100.00
62333;BME280;48624;49.812;8.562;2023-11-21T04:48:41;100014.53;;;9.05;100.00
62333;BME280;48624;49.812;8.562;2023-11-21T04:51:07;100010.41;;;9.13;100.00
62333;BME280;48624;49.812;8.562;2023-11-21T04:53:32;100016.13;;;9.07;100.00
62333;BME280;48624;49.812;8.562;2023-11-21T04:55:59;100025.09;;;9.05;100.00
62333;BME280;48624;49.812;8.562;2023-11-21T04:58:25;100023.59;;;9.00;100.00
62333;BME280;48624;49.812;8.562;2023-11-21T05:00:50;100023.50;;;9.02;100.00
62333;BME280;48624;49.812;8.562;2023-11-21T05:03:15;100031.13;;;9.07;100.00
62333;BME280;48624;49.812;8.562;2023-11-21T05:05:41;100033.34;;;9.13;100.00
62333;BME280;48624;49.812;8.562;2023-11-21T05:08:06;100027.13;;;9.14;100.00
62333;BME280;48624;49.812;8.562;2023-11-21T05:10:31;100029.97;;;9.11;100.00
62333;BME280;48624;49.812;8.562;2023-11-21T05:12:56;100036.19;;;9.10;100.00
62333;BME280;48624;49.812;8.562;2023-11-21T05:15:22;100040.56;;;9.11;100.00
62333;BME280;48624;49.812;8.562;2023-11-21T05:17:48;100041.59;;;8.95;100.00
62333;BME280;48624;49.812;8.562;2023-11-21T05:20:15;100049.09;;;8.88;100.00
62333;BME280;48624;49.812;8.562;2023-11-21T05:22:45;100044.94;;;8.84;100.00
62333;BME280;48624;49.812;8.562;2023-11-21T05:25:11;100053.72;;;8.85;100.00
62333;BME280;48624;49.812;8.562;2023-11-21T05:27:37;100051.47;;;8.79;100.00
62333;BME280;48624;49.812;8.562;2023-11-21T05:30:03;100064.22;;;8.59;100.00
62333;BME280;48624;49.812;8.562;2023-11-21T05:32:34;100060.53;;;8.62;100.00
62333;BME280;48624;49.812;8.562;2023-11-21T05:34:59;100064.00;;;8.62;100.00
62333;BME280;48624;49.812;8.562;2023-11-21T05:37:25;100065.81;;;8.62;100.00
62333;BME280;48624;49.812;8.562;2023-11-21T05:39:53;100069.28;;;8.62;100.00
62333;BME280;48624;49.812;8.562;2023-11-21T05:42:18;100073.22;;;8.69;100.00
62333;BME280;48624;49.812;8.562;2023-11-21T05:44:43;100068.53;;;8.60;100.00
62333;BME280;48624;49.812;8.562;2023-11-21T05:47:09;100074.47;;;8.64;100.00
62333;BME280;48624;49.812;8.562;2023-11-21T05:49:35;100073.94;;;8.58;100.00
62333;BME280;48624;49.812;8.562;2023-11-21T05:52:00;100080.44;;;8.53;100.00
62333;BME280;48624;49.812;8.562;2023-11-21T05:54:27;100084.94;;;8.65;100.00
62333;BME280;48624;49.812;8.562;2023-11-21T05:56:52;100072.81;;;8.48;100.00
62333;BME280;48624;49.812;8.562;2023-11-21T05:59:17;100079.16;;;8.45;100.00
62333;BME280;48624;49.812;8.562;2023-11-21T06:01:43;100083.72;;;8.29;100.00
62333;BME280;48624;49.812;8.562;2023-11-21T06:04:08;100087.97;;;8.59;100.00
62333;BME280;48624;49.812;8.562;2023-11-21T06:06:35;100090.84;;;8.56;100.00
62333;BME280;48624;49.812;8.562;2023-11-21T06:09:00;100100.75;;;8.38;100.00
62333;BME280;48624;49.812;8.562;2023-11-21T06:11:25;100100.09;;;8.34;100.00
62333;BME280;48624;49.812;8.562;2023-11-21T06:13:52;100108.78;;;8.36;100.00
62333;BME280;48624;49.812;8.562;2023-11-21T06:16:18;100103.94;;;8.43;100.00
62333;BME280;48624;49.812;8.562;2023-11-21T06:18:45;100129.03;;;8.36;100.00
62333;BME280;48624;49.812;8.562;2023-11-21T06:21:11;100120.59;;;8.16;100.00
62333;BME280;48624;49.812;8.562;2023-11-21T06:23:36;100130.44;;;8.41;100.00
62333;BME280;48624;49.812;8.562;2023-11-21T06:26:01;100137.00;;;8.21;100.00
62333;BME280;48624;49.812;8.562;2023-11-21T06:28:27;100133.81;;;8.43;100.00
62333;BME280;48624;49.812;8.562;2023-11-21T06:30:52;100137.34;;;8.29;100.00
62333;BME280;48624;49.812;8.562;2023-11-21T06:33:18;100141.88;;;8.27;100.00
62333;BME280;48624;49.812;8.562;2023-11-21T06:35:43;100144.88;;;8.36;100.00
62333;BME280;48624;49.812;8.562;2023-11-21T06:38:09;100148.16;;;8.39;100.00
62333;BME280;48624;49.812;8.562;2023-11-21T06:40:35;100149.66;;;8.58;100.00
62333;BME280;48624;49.812;8.562;2023-11-21T06:43:00;100163.91;;;8.55;100.00
62333;BME280;48624;49.812;8.562;2023-11-21T06:45:26;100160.53;;;8.53;100.00
62333;BME280;48624;49.812;8.562;2023-11-21T06:47:51;100171.66;;;8.29;100.00
62333;BME280;48624;49.812;8.562;2023-11-21T06:50:16;100171.63;;;8.44;100.00
62333;BME280;48624;49.812;8.562;2023-11-21T06:52:42;100171.66;;;8.29;100.00
62333;BME280;48624;49.812;8.562;2023-11-21T06:55:08;100179.19;;;8.36;100.00
62333;BME280;48624;49.812;8.562;2023-11-21T06:57:33;100181.09;;;8.33;100.00
62333;BME280;48624;49.812;8.562;2023-11-21T07:00:00;100185.00;;;8.70;100.00
62333;BME280;48624;49.812;8.562;2023-11-21T07:02:25;100181.13;;;8.76;100.00
62333;BME280;48624;49.812;8.562;2023-11-21T07:04:50;100186.53;;;8.59;100.00
62333;BME280;48624;49.812;8.562;2023-11-21T07:07:16;100198.28;;;8.83;100.00
62333;BME280;48624;49.812;8.562;2023-11-21T07:09:41;100199.66;;;8.88;100.00
62333;BME280;48624;49.812;8.562;2023-11-21T07:12:07;100211.72;;;8.51;100.00
62333;BME280;48624;49.812;8.562;2023-11-21T07:14:35;100217.22;;;8.75;100.00
62333;BME280;48624;49.812;8.562;2023-11-21T07:17:00;100216.03;;;8.66;100.00
62333;BME280;48624;49.812;8.562;2023-11-21T07:19:26;100222.97;;;8.82;100.00
62333;BME280;48624;49.812;8.562;2023-11-21T07:21:51;100223.97;;;8.66;100.00
62333;BME280;48624;49.812;8.562;2023-11-21T07:24:16;100227.41;;;8.54;100.00
62333;BME280;48624;49.812;8.562;2023-11-21T07:26:42;100227.00;;;8.60;100.00
62333;BME280;48624;49.812;8.562;2023-11-21T07:29:08;100234.69;;;8.78;100.00
62333;BME280;48624;49.812;8.562;2023-11-21T07:31:33;100234.31;;;8.69;100.00
62333;BME280;48624;49.812;8.562;2023-11-21T07:33:59;100236.22;;;8.67;100.00
62333;BME280;48624;49.812;8.562;2023-11-21T07:36:25;100240.56;;;8.68;100.00
62333;BME280;48624;49.812;8.562;2023-11-21T07:38:50;100244.22;;;8.66;100.00
62333;BME280;48624;49.812;8.562;2023-11-21T07:41:17;100241.72;;;8.64;100.00
62333;BME280;48624;49.812;8.562;2023-11-21T07:43:43;100239.97;;;8.78;100.00
62333;BME280;48624;49.812;8.562;2023-11-21T07:46:09;100247.31;;;8.72;100.00
62333;BME280;48624;49.812;8.562;2023-11-21T07:48:35;100250.00;;;8.58;100.00
62333;BME280;48624;49.812;8.562;2023-11-21T07:51:03;100257.44;;;8.80;100.00
62333;BME280;48624;49.812;8.562;2023-11-21T07:53:32;100245.81;;;8.83;100.00
62333;BME280;48624;49.812;8.562;2023-11-21T07:56:07;100249.25;;;8.56;100.00
62333;BME280;48624;49.812;8.562;2023-11-21T07:58:34;100260.59;;;8.85;100.00
62333;BME280;48624;49.812;8.562;2023-11-21T08:01:00;100265.72;;;8.88;100.00
62333;BME280;48624;49.812;8.562;2023-11-21T08:03:27;100263.00;;;8.61;100.00
62333;BME280;48624;49.812;8.562;2023-11-21T08:05:54;100272.16;;;8.70;100.00
62333;BME280;48624;49.812;8.562;2023-11-21T08:08:19;100274.16;;;8.66;100.00
62333;BME280;48624;49.812;8.562;2023-11-21T08:10:45;100280.38;;;8.65;100.00
62333;BME280;48624;49.812;8.562;2023-11-21T08:13:13;100274.69;;;8.86;100.00
62333;BME280;48624;49.812;8.562;2023-11-21T08:15:41;100274.69;;;8.86;100.00
62333;BME280;48624;49.812;8.562;2023-11-21T08:18:06;100278.44;;;8.82;100.00
62333;BME280;48624;49.812;8.562;2023-11-21T08:20:32;100276.56;;;8.84;100.00
62333;BME280;48624;49.812;8.562;2023-11-21T08:22:58;100279.22;;;8.84;100.00
62333;BME280;48624;49.812;8.562;2023-11-21T08:25:23;100278.50;;;9.09;100.00
62333;BME280;48624;49.812;8.562;2023-11-21T08:27:48;100284.72;;;9.08;100.00
62333;BME280;48624;49.812;8.562;2023-11-21T08:30:15;100287.09;;;8.98;100.00
62333;BME280;48624;49.812;8.562;2023-11-21T08:32:42;100286.94;;;9.14;100.00
62333;BME280;48624;49.812;8.562;2023-11-21T08:35:08;100287.16;;;9.11;100.00
62333;BME280;48624;49.812;8.562;2023-11-21T08:37:33;100289.13;;;9.22;100.00
62333;BME280;48624;49.812;8.562;2023-11-21T08:40:03;100295.22;;;8.95;100.00
62333;BME280;48624;49.812;8.562;2023-11-21T08:42:28;100295.53;;;9.18;100.00
62333;BME280;48624;49.812;8.562;2023-11-21T08:44:58;100304.41;;;8.90;100.00
62333;BME280;48624;49.812;8.562;2023-11-21T08:47:23;100305.75;;;9.10;100.00
62333;BME280;48624;49.812;8.562;2023-11-21T08:49:50;100308.16;;;8.85;100.00
62333;BME280;48624;49.812;8.562;2023-11-21T08:52:19;100310.44;;;9.19;100.00
62333;BME280;48624;49.812;8.562;2023-11-21T08:54:48;100317.69;;;8.88;100.00
62333;BME280;48624;49.812;8.562;2023-11-21T08:57:21;100320.63;;;8.83;100.00
62333;BME280;48624;49.812;8.562;2023-11-21T08:59:46;100321.66;;;8.95;100.00
62333;BME280;48624;49.812;8.562;2023-11-21T09:02:11;100329.44;;;9.11;100.00
62333;BME280;48624;49.812;8.562;2023-11-21T09:04:36;100331.56;;;9.06;100.00
62333;BME280;48624;49.812;8.562;2023-11-21T09:07:03;100330.16;;;9.28;100.00
62333;BME280;48624;49.812;8.562;2023-11-21T09:09:28;100341.84;;;8.96;100.00
62333;BME280;48624;49.812;8.562;2023-11-21T09:11:54;100348.59;;;9.15;100.00
62333;BME280;48624;49.812;8.562;2023-11-21T09:14:20;100348.38;;;8.91;100.00
62333;BME280;48624;49.812;8.562;2023-11-21T09:16:45;100349.28;;;9.04;100.00
62333;BME280;48624;49.812;8.562;2023-11-21T09:19:11;100346.84;;;8.86;100.00
62333;BME280;48624;49.812;8.562;2023-11-21T09:21:37;100358.84;;;8.92;100.00
62333;BME280;48624;49.812;8.562;2023-11-21T09:24:02;100366.19;;;8.87;100.00
62333;BME280;48624;49.812;8.562;2023-11-21T09:26:28;100369.69;;;8.87;100.00
62333;BME280;48624;49.812;8.562;2023-11-21T09:28:55;100374.88;;;8.89;100.00
62333;BME280;48624;49.812;8.562;2023-11-21T09:31:22;100363.34;;;8.90;100.00
62333;BME280;48624;49.812;8.562;2023-11-21T09:33:48;100364.09;;;9.07;100.00
62333;BME280;48624;49.812;8.562;2023-11-21T09:36:13;100370.03;;;9.10;100.00
62333;BME280;48624;49.812;8.562;2023-11-21T09:38:39;100369.09;;;9.11;100.00
62333;BME280;48624;49.812;8.562;2023-11-21T09:41:15;100368.19;;;8.98;100.00
62333;BME280;48624;49.812;8.562;2023-11-21T09:43:46;100375.03;;;9.00;100.00
62333;BME280;48624;49.812;8.562;2023-11-21T09:46:13;100376.94;;;8.98;100.00
62333;BME280;48624;49.812;8.562;2023-11-21T09:48:47;100375.97;;;9.14;100.00
62333;BME280;48624;49.812;8.562;2023-11-21T09:51:15;100383.34;;;9.09;100.00
62333;BME280;48624;49.812;8.562;2023-11-21T09:53:44;100390.09;;;9.27;100.00
62333;BME280;48624;49.812;8.562;2023-11-21T09:56:10;100398.59;;;9.33;100.00
62333;BME280;48624;49.812;8.562;2023-11-21T09:58:36;100394.78;;;9.09;100.00
62333;BME280;48624;49.812;8.562;2023-11-21T10:01:03;100403.34;;;9.13;100.00
62333;BME280;48624;49.812;8.562;2023-11-21T10:03:28;100410.22;;;9.44;100.00
62333;BME280;48624;49.812;8.562;2023-11-21T10:05:56;100400.97;;;9.23;100.00
62333;BME280;48624;49.812;8.562;2023-11-21T10:08:22;100403.44;;;9.26;100.00
62333;BME280;48624;49.812;8.562;2023-11-21T10:10:51;100408.03;;;9.37;100.00
62333;BME280;48624;49.812;8.562;2023-11-21T10:13:18;100414.75;;;9.28;100.00
62333;BME280;48624;49.812;8.562;2023-11-21T10:15:49;100416.41;;;9.01;100.00
62333;BME280;48624;49.812;8.562;2023-11-21T10:18:16;100414.75;;;9.28;100.00
62333;BME280;48624;49.812;8.562;2023-11-21T10:20:41;100412.13;;;9.28;100.00
62333;BME280;48624;49.812;8.562;2023-11-21T10:23:08;100416.78;;;9.52;100.00
62333;BME280;48624;49.812;8.562;2023-11-21T10:25:36;100416.63;;;9.40;100.00
62333;BME280;48624;49.812;8.562;2023-11-21T10:28:03;100418.59;;;9.51;100.00
62333;BME280;48624;49.812;8.562;2023-11-21T10:30:34;100419.72;;;9.47;100.00
62333;BME280;48624;49.812;8.562;2023-11-21T10:33:06;100418.88;;;9.47;100.00
62333;BME280;48624;49.812;8.562;2023-11-21T10:35:51;100422.56;;;9.44;100.00
62333;BME280;48624;49.812;8.562;2023-11-21T10:38:20;100423.78;;;9.80;100.00
62333;BME280;48624;49.812;8.562;2023-11-21T10:40:50;100422.41;;;9.75;100.00
62333;BME280;48624;49.812;8.562;2023-11-21T10:43:16;100428.63;;;10.01;100.00
62333;BME280;48624;49.812;8.562;2023-11-21T10:45:42;100429.53;;;9.87;100.00
62333;BME280;48624;49.812;8.562;2023-11-21T10:48:10;100429.44;;;10.29;100.00
62333;BME280;48624;49.812;8.562;2023-11-21T10:50:42;100424.28;;;10.00;100.00
62333;BME280;48624;49.812;8.562;2023-11-21T10:53:08;100423.22;;;10.03;100.00
62333;BME280;48624;49.812;8.562;2023-11-21T10:55:34;100427.50;;;10.18;100.00
62333;BME280;48624;49.812;8.562;2023-11-21T10:58:01;100427.66;;;10.02;100.00
62333;BME280;48624;49.812;8.562;2023-11-21T11:00:28;100433.03;;;9.88;100.00
62333;BME280;48624;49.812;8.562;2023-11-21T11:02:54;100427.91;;;9.84;100.00
62333;BME280;48624;49.812;8.562;2023-11-21T11:05:22;100429.38;;;9.76;100.00
62333;BME280;48624;49.812;8.562;2023-11-21T11:08:04;100430.22;;;10.04;100.00
62333;BME280;48624;49.812;8.562;2023-11-21T11:10:29;100432.59;;;9.94;100.00
62333;BME280;48624;49.812;8.562;2023-11-21T11:12:56;100430.03;;;10.20;100.00
62333;BME280;48624;49.812;8.562;2023-11-21T11:15:24;100428.34;;;10.72;100.00
62333;BME280;48624;49.812;8.562;2023-11-21T11:17:49;100419.97;;;10.52;100.00
62333;BME280;48624;49.812;8.562;2023-11-21T11:20:16;100429.69;;;10.52;100.00
62333;BME280;48624;49.812;8.562;2023-11-21T11:23:13;100422.16;;;10.05;100.00
62333;BME280;48624;49.812;8.562;2023-11-21T11:29:35;100418.69;;;10.58;100.00
62333;BME280;48624;49.812;8.562;2023-11-21T11:32:47;100415.50;;;10.66;100.00
62333;BME280;48624;49.812;8.562;2023-11-21T11:35:34;100412.66;;;10.56;100.00
62333;BME280;48624;49.812;8.562;2023-11-21T11:38:02;100415.41;;;10.67;100.00
62333;BME280;48624;49.812;8.562;2023-11-21T11:40:52;100407.78;;;10.63;100.00
62333;BME280;48624;49.812;8.562;2023-11-21T11:43:25;100405.84;;;10.65;99.77
62333;BME280;48624;49.812;8.562;2023-11-21T11:45:55;100411.88;;;11.06;100.00
62333;BME280;48624;49.812;8.562;2023-11-21T11:48:21;100414.22;;;10.98;98.92
62333;BME280;48624;49.812;8.562;2023-11-21T11:51:10;100420.88;;;11.16;100.00
62333;BME280;48624;49.812;8.562;2023-11-21T11:53:46;100425.97;;;11.19;95.08
62333;BME280;48624;49.812;8.562;2023-11-21T11:56:30;100422.19;;;11.97;95.60
62333;BME280;48624;49.812;8.562;2023-11-21T11:59:00;100428.53;;;11.45;92.93
62333;BME280;48624;49.812;8.562;2023-11-21T12:01:28;100424.88;;;11.35;95.76
62333;BME280;48624;49.812;8.562;2023-11-21T12:06:45;100412.69;;;11.57;91.10
62333;BME280;48624;49.812;8.562;2023-11-21T12:09:18;100424.94;;;11.71;89.10
62333;BME280;48624;49.812;8.562;2023-11-21T12:11:45;100428.44;;;12.09;92.63
62333;BME280;48624;49.812;8.562;2023-11-21T12:14:11;100433.59;;;11.61;91.49
62333;BME280;48624;49.812;8.562;2023-11-21T12:16:38;100438.47;;;12.16;90.23
62333;BME280;48624;49.812;8.562;2023-11-21T12:19:04;100442.06;;;11.66;93.32
62333;BME280;48624;49.812;8.562;2023-11-21T12:21:29;100430.38;;;11.69;90.75
62333;BME280;48624;49.812;8.562;2023-11-21T12:23:55;100438.50;;;11.79;90.83
62333;BME280;48624;49.812;8.562;2023-11-21T12:26:23;100436.94;;;12.01;90.43
62333;BME280;48624;49.812;8.562;2023-11-21T12:28:52;100438.28;;;11.58;86.87
62333;BME280;48624;49.812;8.562;2023-11-21T12:31:21;100447.47;;;12.02;89.66
62333;BME280;48624;49.812;8.562;2023-11-21T12:33:46;100445.66;;;11.78;90.49
62333;BME280;48624;49.812;8.562;2023-11-21T12:36:12;100441.16;;;11.55;91.14
62333;BME280;48624;49.812;8.562;2023-11-21T12:38:38;100447.72;;;11.86;91.16
62333;BME280;48624;49.812;8.562;2023-11-21T12:41:03;100450.03;;;11.91;90.00
62333;BME280;48624;49.812;8.562;2023-11-21T12:43:30;100447.78;;;11.98;94.12
62333;BME280;48624;49.812;8.562;2023-11-21T12:46:08;100453.09;;;11.98;87.97
62333;BME280;48624;49.812;8.562;2023-11-21T12:48:38;100451.78;;;11.79;88.34
62333;BME280;48624;49.812;8.562;2023-11-21T12:51:12;100455.63;;;11.99;89.11
62333;BME280;48624;49.812;8.562;2023-11-21T12:53:41;100450.06;;;11.54;88.29
62333;BME280;48624;49.812;8.562;2023-11-21T12:56:10;100460.66;;;11.91;88.30
62333;BME280;48624;49.812;8.562;2023-11-21T12:58:36;100463.69;;;11.73;88.34
62333;BME280;48624;49.812;8.562;2023-11-21T13:01:04;100473.47;;;11.73;87.89